Time,TemperatureF,DewpointF,PressureIn,WindDirection,WindDirectionDegrees,WindSpeedMPH,WindSpeedGustMPH,Humidity,HourlyPrecipIn,Conditions,Clouds,dailyrainin,SoftwareType,DateUTC
2013-08-08 00:33:00,69.0,68.0,-100.00,SW,225,3.0,4.0,98,-99.99,,,-99.99,,2013-08-08 04:33:00,
2013-08-08 01:22:00,69.0,68.0,-100.00,SW,215,1.0,1.0,98,-99.99,,,-99.99,,2013-08-08 05:22:00,
2013-08-08 01:43:00,69.0,68.0,-100.00,SW,220,2.0,2.0,98,-99.99,,,-99.99,,2013-08-08 05:43:00,
2013-08-08 02:32:00,69.0,68.0,-100.00,West,260,1.0,3.0,98,-99.99,,,-99.99,,2013-08-08 06:32:00,
2013-08-08 02:43:00,68.0,68.0,-100.00,South,170,1.0,1.0,98,-99.99,,,-99.99,,2013-08-08 06:43:00,
2013-08-08 02:52:00,69.0,68.0,-100.00,SSW,195,1.0,1.0,98,-99.99,,,-99.99,,2013-08-08 06:52:00,
2013-08-08 03:02:00,69.0,68.0,-100.00,SW,220,1.0,2.0,98,-99.99,,,-99.99,,2013-08-08 07:02:00,
2013-08-08 03:12:00,69.0,68.0,-100.00,SW,230,1.0,2.0,98,-99.99,,,-99.99,,2013-08-08 07:12:00,
2013-08-08 03:22:00,69.0,68.0,-100.00,WNW,295,1.0,2.0,98,-99.99,,,-99.99,,2013-08-08 07:22:00,
2013-08-08 03:32:00,69.0,68.0,-100.00,West,260,2.0,4.0,98,-99.99,,,-99.99,,2013-08-08 07:32:00,
2013-08-08 03:43:00,69.0,68.0,-100.00,SW,220,2.0,3.0,98,-99.99,,,-99.99,,2013-08-08 07:43:00,
2013-08-08 03:53:00,69.0,68.0,-100.00,South,170,1.0,2.0,98,-99.99,,,-99.99,,2013-08-08 07:53:00,
2013-08-08 04:02:00,69.0,68.0,-100.00,South,185,1.0,3.0,98,-99.99,,,-99.99,,2013-08-08 08:02:00,
2013-08-08 04:11:00,69.0,68.0,-100.00,South,190,2.0,3.0,98,-99.99,,,-99.99,,2013-08-08 08:11:00,
2013-08-08 04:22:00,69.0,68.0,-100.00,SSE,165,2.0,5.0,98,-99.99,,,-99.99,,2013-08-08 08:22:00,
2013-08-08 04:32:00,69.0,68.0,-100.00,South,170,1.0,2.0,98,-99.99,,,-99.99,,2013-08-08 08:32:00,
2013-08-08 04:43:00,69.0,69.0,-100.00,SW,220,1.0,2.0,98,-99.99,,,-99.99,,2013-08-08 08:43:00,
2013-08-08 04:53:00,69.0,68.0,-100.00,SW,220,1.0,3.0,98,-99.99,,,-99.99,,2013-08-08 08:53:00,
2013-08-08 05:02:00,69.0,68.0,-100.00,SSW,195,1.0,2.0,98,-99.99,,,-99.99,,2013-08-08 09:02:00,
2013-08-08 05:12:00,69.0,68.0,-100.00,SSW,205,0.0,2.0,98,-99.99,,,-99.99,,2013-08-08 09:12:00,
2013-08-08 05:22:00,69.0,68.0,-100.00,South,185,0.0,4.0,98,-99.99,,,-99.99,,2013-08-08 09:22:00,
2013-08-08 05:32:00,69.0,68.0,-100.00,West,280,0.0,2.0,98,-99.99,,,-99.99,,2013-08-08 09:32:00,
2013-08-08 06:12:00,69.0,68.0,-100.00,West,265,1.0,4.0,98,-99.99,,,-99.99,,2013-08-08 10:12:00,
2013-08-08 06:22:00,68.0,68.0,-100.00,East,100,0.0,2.0,98,-99.99,,,-99.99,,2013-08-08 10:22:00,
2013-08-08 07:43:00,68.0,67.0,-100.00,SSW,205,1.0,3.0,99,-99.99,,,-99.99,,2013-08-08 11:43:00,
2013-08-08 08:01:00,68.0,68.0,-100.00,SW,215,1.0,4.0,99,-99.99,,,-99.99,,2013-08-08 12:01:00,
2013-08-08 09:43:00,72.0,71.0,-100.00,WSW,240,4.0,7.0,98,-99.99,,,-99.99,,2013-08-08 13:43:00,
2013-08-08 09:52:00,72.0,71.0,-100.00,West,260,4.0,6.0,97,-99.99,,,-99.99,,2013-08-08 13:52:00,
2013-08-08 10:43:00,72.0,71.0,-100.00,West,275,4.0,6.0,95,-99.99,,,-99.99,,2013-08-08 14:43:00,
2013-08-08 10:53:00,72.0,71.0,-100.00,West,275,4.0,6.0,95,-99.99,,,-99.99,,2013-08-08 14:53:00,
2013-08-08 11:02:00,73.0,71.0,-100.00,WSW,250,3.0,5.0,93,-99.99,,,-99.99,,2013-08-08 15:02:00,
2013-08-08 11:32:00,73.0,71.0,-100.00,SW,230,2.0,4.0,92,-99.99,,,-99.99,,2013-08-08 15:32:00,
2013-08-08 11:43:00,73.0,71.0,-100.00,SW,230,4.0,6.0,94,-99.99,,,-99.99,,2013-08-08 15:43:00,
2013-08-08 12:32:00,77.0,71.0,-100.00,WSW,245,4.0,6.0,81,-99.99,,,-99.99,,2013-08-08 16:32:00,
2013-08-08 12:42:00,78.0,71.0,-100.00,WSW,255,4.0,7.0,80,-99.99,,,-99.99,,2013-08-08 16:42:00,
2013-08-08 13:02:00,78.0,70.0,-100.00,WSW,255,4.0,7.0,77,-99.99,,,-99.99,,2013-08-08 17:02:00,
2013-08-08 13:43:00,81.0,70.0,-100.00,WSW,245,6.0,9.0,68,-99.99,,,-99.99,,2013-08-08 17:43:00,
2013-08-08 14:01:00,81.0,69.0,-100.00,WSW,245,7.0,10.0,67,-99.99,,,-99.99,,2013-08-08 18:01:00,
2013-08-08 14:43:00,83.0,70.0,-100.00,West,260,6.0,10.0,64,-99.99,,,-99.99,,2013-08-08 18:43:00,
2013-08-08 15:01:00,84.0,69.0,-100.00,SW,235,7.0,10.0,61,-99.99,,,-99.99,,2013-08-08 19:01:00,
2013-08-08 15:12:00,84.0,69.0,-100.00,SW,230,7.0,10.0,61,-99.99,,,-99.99,,2013-08-08 19:12:00,
2013-08-08 15:43:00,84.0,70.0,-100.00,West,265,6.0,10.0,62,-99.99,,,-99.99,,2013-08-08 19:43:00,
2013-08-08 15:55:00,84.0,69.0,-100.00,WSW,245,4.0,10.0,60,-99.99,,,-99.99,,2013-08-08 19:55:00,
2013-08-08 16:52:00,84.0,69.0,-100.00,West,260,4.0,9.0,61,-99.99,,,-99.99,,2013-08-08 20:52:00,
2013-08-08 17:01:00,85.0,69.0,-100.00,WNW,295,6.0,9.0,58,-99.99,,,-99.99,,2013-08-08 21:01:00,
2013-08-08 17:34:00,83.0,69.0,-100.00,West,270,4.0,11.0,62,-99.99,,,-99.99,,2013-08-08 21:34:00,
2013-08-08 17:45:00,83.0,68.0,-100.00,WNW,300,6.0,12.0,60,-99.99,,,-99.99,,2013-08-08 21:45:00,
2013-08-08 18:16:00,84.0,67.0,-100.00,WNW,300,8.0,11.0,57,-99.99,,,-99.99,,2013-08-08 22:16:00,
2013-08-08 18:35:00,84.0,67.0,-100.00,West,270,6.0,11.0,57,-99.99,,,-99.99,,2013-08-08 22:35:00,
2013-08-08 18:47:00,83.0,67.0,-100.00,NW,315,6.0,10.0,59,-99.99,,,-99.99,,2013-08-08 22:47:00,
2013-08-08 18:56:00,81.0,69.0,-100.00,NW,315,9.0,14.0,67,-99.99,,,-99.99,,2013-08-08 22:56:00,
2013-08-08 19:46:00,75.0,71.0,-100.00,NNE,30,7.0,11.0,86,-99.99,,,-99.99,,2013-08-08 23:46:00,
2013-08-08 20:05:00,74.0,71.0,-100.00,NE,45,6.0,9.0,89,-99.99,,,-99.99,,2013-08-09 00:05:00,
2013-08-08 20:15:00,74.0,71.0,-100.00,NNE,25,4.0,9.0,89,-99.99,,,-99.99,,2013-08-09 00:15:00,
2013-08-08 20:24:00,74.0,71.0,-100.00,ENE,60,6.0,7.0,90,-99.99,,,-99.99,,2013-08-09 00:24:00,
2013-08-08 20:35:00,74.0,71.0,-100.00,ENE,60,6.0,7.0,91,-99.99,,,-99.99,,2013-08-09 00:35:00,
2013-08-08 20:45:00,73.0,71.0,-100.00,ENE,65,5.0,7.0,92,-99.99,,,-99.99,,2013-08-09 00:45:00,
2013-08-08 20:53:00,73.0,71.0,-100.00,ENE,65,5.0,9.0,93,-99.99,,,-99.99,,2013-08-09 00:53:00,
2013-08-08 21:03:00,72.0,71.0,-100.00,East,95,3.0,7.0,94,-99.99,,,-99.99,,2013-08-09 01:03:00,
2013-08-08 21:25:00,72.0,70.0,-100.00,North,350,1.0,2.0,96,-99.99,,,-99.99,,2013-08-09 01:25:00,
2013-08-08 22:04:00,70.0,70.0,-100.00,ENE,75,4.0,6.0,98,-99.99,,,-99.99,,2013-08-09 02:04:00,
2013-08-08 22:25:00,70.0,69.0,-100.00,East,100,4.0,7.0,98,-99.99,,,-99.99,,2013-08-09 02:25:00,
2013-08-08 22:46:00,70.0,69.0,-100.00,ENE,65,1.0,2.0,98,-99.99,,,-99.99,,2013-08-09 02:46:00,
2013-08-08 23:07:00,70.0,69.0,-100.00,SSW,195,1.0,2.0,98,-99.99,,,-99.99,,2013-08-09 03:07:00,